sensor_id;sensor_type;location;lat;lon;timestamp;P1;durP1;ratioP1;P2;durP2;ratioP2
23754;SDS011;12057;52.042;6.830;2023-02-28T00:04:05;25.35;;;9.88;;
23754;SDS011;12057;52.042;6.830;2023-02-28T00:09:06;29.25;;;10.77;;
23754;SDS011;12057;52.042;6.830;2023-02-28T00:14:06;27.35;;;10.55;;
23754;SDS011;12057;52.042;6.830;2023-02-28T00:19:07;31.35;;;10.63;;
23754;SDS011;12057;52.042;6.830;2023-02-28T00:24:08;26.33;;;8.85;;
23754;SDS011;12057;52.042;6.830;2023-02-28T00:29:09;34.20;;;9.02;;
23754;SDS011;12057;52.042;6.830;2023-02-28T00:34:10;30.65;;;10.35;;
23754;SDS011;12057;52.042;6.830;2023-02-28T00:39:11;18.30;;;8.63;;
23754;SDS011;12057;52.042;6.830;2023-02-28T00:44:11;25.45;;;10.35;;
23754;SDS011;12057;52.042;6.830;2023-02-28T00:49:12;22.92;;;9.57;;
23754;SDS011;12057;52.042;6.830;2023-02-28T00:54:13;25.50;;;10.07;;
23754;SDS011;12057;52.042;6.830;2023-02-28T00:59:14;30.95;;;9.15;;
23754;SDS011;12057;52.042;6.830;2023-02-28T01:04:16;23.08;;;8.73;;
23754;SDS011;12057;52.042;6.830;2023-02-28T01:14:18;21.17;;;8.77;;
23754;SDS011;12057;52.042;6.830;2023-02-28T01:19:19;18.00;;;8.88;;
23754;SDS011;12057;52.042;6.830;2023-02-28T01:24:19;22.73;;;9.00;;
23754;SDS011;12057;52.042;6.830;2023-02-28T01:29:20;28.45;;;9.57;;
23754;SDS011;12057;52.042;6.830;2023-02-28T01:34:21;21.08;;;7.68;;
23754;SDS011;12057;52.042;6.830;2023-02-28T01:39:22;24.15;;;9.05;;
23754;SDS011;12057;52.042;6.830;2023-02-28T01:49:55;21.10;;;8.95;;
23754;SDS011;12057;52.042;6.830;2023-02-28T01:54:56;24.50;;;10.25;;
23754;SDS011;12057;52.042;6.830;2023-02-28T02:00:01;19.25;;;9.23;;
23754;SDS011;12057;52.042;6.830;2023-02-28T02:05:10;19.48;;;8.63;;
23754;SDS011;12057;52.042;6.830;2023-02-28T02:10:29;19.83;;;8.38;;
23754;SDS011;12057;52.042;6.830;2023-02-28T02:21:10;21.83;;;8.50;;
23754;SDS011;12057;52.042;6.830;2023-02-28T02:37:11;19.88;;;8.52;;
23754;SDS011;12057;52.042;6.830;2023-02-28T02:43:13;19.67;;;7.82;;
23754;SDS011;12057;52.042;6.830;2023-02-28T02:47:58;14.82;;;7.55;;
23754;SDS011;12057;52.042;6.830;2023-02-28T02:53:01;18.60;;;8.13;;
23754;SDS011;12057;52.042;6.830;2023-02-28T02:58:04;20.00;;;7.10;;
23754;SDS011;12057;52.042;6.830;2023-02-28T03:03:13;20.90;;;7.55;;
23754;SDS011;12057;52.042;6.830;2023-02-28T03:08:17;15.63;;;7.03;;
23754;SDS011;12057;52.042;6.830;2023-02-28T03:19:24;19.80;;;6.95;;
23754;SDS011;12057;52.042;6.830;2023-02-28T03:25:16;12.70;;;6.70;;
23754;SDS011;12057;52.042;6.830;2023-02-28T03:35:27;16.23;;;8.18;;
23754;SDS011;12057;52.042;6.830;2023-02-28T03:40:33;25.52;;;7.65;;
23754;SDS011;12057;52.042;6.830;2023-02-28T03:45:37;21.65;;;6.90;;
23754;SDS011;12057;52.042;6.830;2023-02-28T03:50:42;17.70;;;6.45;;
23754;SDS011;12057;52.042;6.830;2023-02-28T03:55:47;16.58;;;6.97;;
23754;SDS011;12057;52.042;6.830;2023-02-28T04:00:59;15.75;;;6.57;;
23754;SDS011;12057;52.042;6.830;2023-02-28T04:06:08;25.67;;;6.88;;
23754;SDS011;12057;52.042;6.830;2023-02-28T04:11:25;18.02;;;7.07;;
23754;SDS011;12057;52.042;6.830;2023-02-28T04:16:36;17.02;;;6.18;;
23754;SDS011;12057;52.042;6.830;2023-02-28T04:21:49;18.75;;;7.13;;
23754;SDS011;12057;52.042;6.830;2023-02-28T04:26:52;18.48;;;7.55;;
23754;SDS011;12057;52.042;6.830;2023-02-28T04:31:54;15.45;;;7.57;;
23754;SDS011;12057;52.042;6.830;2023-02-28T04:36:59;23.25;;;8.18;;
23754;SDS011;12057;52.042;6.830;2023-02-28T04:42:01;18.58;;;6.93;;
23754;SDS011;12057;52.042;6.830;2023-02-28T04:47:01;19.70;;;8.00;;
23754;SDS011;12057;52.042;6.830;2023-02-28T04:52:02;19.33;;;8.13;;
23754;SDS011;12057;52.042;6.830;2023-02-28T04:57:03;25.58;;;9.05;;
23754;SDS011;12057;52.042;6.830;2023-02-28T05:02:04;26.60;;;8.20;;
23754;SDS011;12057;52.042;6.830;2023-02-28T05:07:06;22.60;;;9.05;;
23754;SDS011;12057;52.042;6.830;2023-02-28T05:12:08;25.40;;;8.05;;
23754;SDS011;12057;52.042;6.830;2023-02-28T05:17:09;17.98;;;7.72;;
23754;SDS011;12057;52.042;6.830;2023-02-28T05:22:14;21.85;;;7.68;;
23754;SDS011;12057;52.042;6.830;2023-02-28T05:27:16;15.18;;;6.78;;
23754;SDS011;12057;52.042;6.830;2023-02-28T05:32:17;30.92;;;8.30;;
23754;SDS011;12057;52.042;6.830;2023-02-28T05:37:18;16.02;;;7.47;;
23754;SDS011;12057;52.042;6.830;2023-02-28T05:42:19;13.45;;;6.28;;
23754;SDS011;12057;52.042;6.830;2023-02-28T05:47:19;17.20;;;6.93;;
23754;SDS011;12057;52.042;6.830;2023-02-28T05:52:20;24.95;;;7.53;;
23754;SDS011;12057;52.042;6.830;2023-02-28T05:57:21;14.38;;;7.30;;
23754;SDS011;12057;52.042;6.830;2023-02-28T06:02:23;19.45;;;7.78;;
23754;SDS011;12057;52.042;6.830;2023-02-28T06:07:23;23.08;;;7.20;;
23754;SDS011;12057;52.042;6.830;2023-02-28T06:12:24;23.88;;;8.75;;
23754;SDS011;12057;52.042;6.830;2023-02-28T06:17:25;37.45;;;8.65;;
23754;SDS011;12057;52.042;6.830;2023-02-28T06:22:26;29.85;;;9.80;;
23754;SDS011;12057;52.042;6.830;2023-02-28T06:27:26;30.08;;;9.18;;
23754;SDS011;12057;52.042;6.830;2023-02-28T06:32:27;21.90;;;10.15;;
23754;SDS011;12057;52.042;6.830;2023-02-28T06:37:28;22.00;;;9.43;;
23754;SDS011;12057;52.042;6.830;2023-02-28T06:42:30;28.75;;;10.40;;
23754;SDS011;12057;52.042;6.830;2023-02-28T06:47:32;30.88;;;10.65;;
23754;SDS011;12057;52.042;6.830;2023-02-28T06:52:33;33.10;;;9.30;;
23754;SDS011;12057;52.042;6.830;2023-02-28T06:57:36;25.88;;;9.15;;
23754;SDS011;12057;52.042;6.830;2023-02-28T07:02:37;24.83;;;9.98;;
23754;SDS011;12057;52.042;6.830;2023-02-28T07:07:38;28.30;;;9.60;;
23754;SDS011;12057;52.042;6.830;2023-02-28T07:12:43;16.60;;;8.32;;
23754;SDS011;12057;52.042;6.830;2023-02-28T07:17:44;28.30;;;9.35;;
23754;SDS011;12057;52.042;6.830;2023-02-28T07:22:45;20.35;;;9.65;;
23754;SDS011;12057;52.042;6.830;2023-02-28T07:32:46;27.73;;;8.83;;
23754;SDS011;12057;52.042;6.830;2023-02-28T07:42:48;21.83;;;8.90;;
23754;SDS011;12057;52.042;6.830;2023-02-28T07:47:48;16.13;;;6.82;;
23754;SDS011;12057;52.042;6.830;2023-02-28T07:52:49;12.35;;;6.75;;
23754;SDS011;12057;52.042;6.830;2023-02-28T07:57:52;14.75;;;5.97;;
23754;SDS011;12057;52.042;6.830;2023-02-28T08:02:53;15.95;;;6.25;;
23754;SDS011;12057;52.042;6.830;2023-02-28T08:07:53;18.42;;;6.03;;
23754;SDS011;12057;52.042;6.830;2023-02-28T08:12:54;11.88;;;5.45;;
23754;SDS011;12057;52.042;6.830;2023-02-28T08:17:55;14.80;;;4.78;;
23754;SDS011;12057;52.042;6.830;2023-02-28T08:22:56;12.13;;;4.82;;
23754;SDS011;12057;52.042;6.830;2023-02-28T08:27:57;15.32;;;4.68;;
23754;SDS011;12057;52.042;6.830;2023-02-28T08:32:58;10.20;;;3.70;;
23754;SDS011;12057;52.042;6.830;2023-02-28T08:37:59;12.65;;;4.20;;
23754;SDS011;12057;52.042;6.830;2023-02-28T08:43:01;8.38;;;4.30;;
23754;SDS011;12057;52.042;6.830;2023-02-28T08:48:02;8.60;;;3.87;;
23754;SDS011;12057;52.042;6.830;2023-02-28T08:53:03;10.15;;;4.00;;
23754;SDS011;12057;52.042;6.830;2023-02-28T08:58:03;10.30;;;4.30;;
23754;SDS011;12057;52.042;6.830;2023-02-28T09:03:04;14.23;;;3.63;;
23754;SDS011;12057;52.042;6.830;2023-02-28T09:08:05;7.00;;;3.50;;
23754;SDS011;12057;52.042;6.830;2023-02-28T09:13:06;7.57;;;3.53;;
23754;SDS011;12057;52.042;6.830;2023-02-28T09:18:09;14.65;;;4.65;;
23754;SDS011;12057;52.042;6.830;2023-02-28T09:23:11;8.38;;;3.92;;
23754;SDS011;12057;52.042;6.830;2023-02-28T09:28:12;11.13;;;4.32;;
23754;SDS011;12057;52.042;6.830;2023-02-28T09:33:16;8.77;;;3.70;;
23754;SDS011;12057;52.042;6.830;2023-02-28T09:38:17;9.82;;;4.07;;
23754;SDS011;12057;52.042;6.830;2023-02-28T09:43:20;10.30;;;3.63;;
23754;SDS011;12057;52.042;6.830;2023-02-28T09:48:25;9.40;;;3.60;;
23754;SDS011;12057;52.042;6.830;2023-02-28T09:53:32;10.60;;;3.03;;
23754;SDS011;12057;52.042;6.830;2023-02-28T09:58:43;7.82;;;2.58;;
23754;SDS011;12057;52.042;6.830;2023-02-28T10:04:21;7.13;;;2.25;;
23754;SDS011;12057;52.042;6.830;2023-02-28T10:09:53;7.57;;;1.83;;
23754;SDS011;12057;52.042;6.830;2023-02-28T10:14:55;1.42;;;1.25;;
23754;SDS011;12057;52.042;6.830;2023-02-28T10:20:01;4.28;;;1.60;;
23754;SDS011;12057;52.042;6.830;2023-02-28T10:30:40;3.00;;;1.60;;
23754;SDS011;12057;52.042;6.830;2023-02-28T10:35:43;4.57;;;1.50;;
23754;SDS011;12057;52.042;6.830;2023-02-28T10:40:44;3.10;;;1.50;;
23754;SDS011;12057;52.042;6.830;2023-02-28T10:46:19;3.97;;;1.67;;
23754;SDS011;12057;52.042;6.830;2023-02-28T10:51:25;2.08;;;1.05;;
23754;SDS011;12057;52.042;6.830;2023-02-28T10:56:38;2.05;;;1.25;;
23754;SDS011;12057;52.042;6.830;2023-02-28T11:01:40;2.60;;;1.40;;
23754;SDS011;12057;52.042;6.830;2023-02-28T11:06:42;4.95;;;1.10;;
23754;SDS011;12057;52.042;6.830;2023-02-28T11:11:45;5.20;;;1.48;;
23754;SDS011;12057;52.042;6.830;2023-02-28T11:16:47;3.35;;;1.60;;
23754;SDS011;12057;52.042;6.830;2023-02-28T11:21:55;4.13;;;1.20;;
23754;SDS011;12057;52.042;6.830;2023-02-28T11:26:58;12.18;;;3.60;;
23754;SDS011;12057;52.042;6.830;2023-02-28T11:32:21;1.67;;;0.98;;
23754;SDS011;12057;52.042;6.830;2023-02-28T11:37:22;2.60;;;1.75;;
23754;SDS011;12057;52.042;6.830;2023-02-28T11:53:04;3.00;;;1.23;;
23754;SDS011;12057;52.042;6.830;2023-02-28T12:09:20;5.68;;;1.75;;
23754;SDS011;12057;52.042;6.830;2023-02-28T12:19:55;4.88;;;1.58;;
23754;SDS011;12057;52.042;6.830;2023-02-28T12:30:53;2.30;;;1.30;;
23754;SDS011;12057;52.042;6.830;2023-02-28T12:36:14;2.90;;;1.10;;
23754;SDS011;12057;52.042;6.830;2023-02-28T12:41:19;4.22;;;1.70;;
23754;SDS011;12057;52.042;6.830;2023-02-28T12:46:38;6.15;;;1.75;;
23754;SDS011;12057;52.042;6.830;2023-02-28T12:51:44;2.67;;;1.42;;
23754;SDS011;12057;52.042;6.830;2023-02-28T12:56:48;4.38;;;2.10;;
23754;SDS011;12057;52.042;6.830;2023-02-28T13:12:57;1.80;;;1.35;;
23754;SDS011;12057;52.042;6.830;2023-02-28T13:18:04;3.05;;;1.60;;
23754;SDS011;12057;52.042;6.830;2023-02-28T13:23:04;3.53;;;1.37;;
23754;SDS011;12057;52.042;6.830;2023-02-28T13:34:05;3.75;;;1.60;;
23754;SDS011;12057;52.042;6.830;2023-02-28T13:45:18;4.43;;;2.08;;
23754;SDS011;12057;52.042;6.830;2023-02-28T13:56:17;3.88;;;1.73;;
23754;SDS011;12057;52.042;6.830;2023-02-28T14:06:35;6.20;;;2.10;;
23754;SDS011;12057;52.042;6.830;2023-02-28T14:11:39;6.78;;;2.65;;
23754;SDS011;12057;52.042;6.830;2023-02-28T14:16:45;6.05;;;2.30;;
23754;SDS011;12057;52.042;6.830;2023-02-28T14:27:20;13.88;;;5.75;;
23754;SDS011;12057;52.042;6.830;2023-02-28T14:37:41;20.13;;;9.35;;
23754;SDS011;12057;52.042;6.830;2023-02-28T14:42:48;18.55;;;8.00;;
23754;SDS011;12057;52.042;6.830;2023-02-28T14:47:59;4.28;;;2.03;;
23754;SDS011;12057;52.042;6.830;2023-02-28T14:53:03;6.43;;;2.55;;
23754;SDS011;12057;52.042;6.830;2023-02-28T14:58:19;4.28;;;2.25;;
23754;SDS011;12057;52.042;6.830;2023-02-28T15:08:31;9.25;;;4.20;;
23754;SDS011;12057;52.042;6.830;2023-02-28T15:18:52;18.67;;;4.50;;
23754;SDS011;12057;52.042;6.830;2023-02-28T15:24:04;10.10;;;3.13;;
23754;SDS011;12057;52.042;6.830;2023-02-28T15:29:10;7.70;;;3.60;;
23754;SDS011;12057;52.042;6.830;2023-02-28T15:34:22;8.80;;;2.90;;
23754;SDS011;12057;52.042;6.830;2023-02-28T15:39:30;7.82;;;2.65;;
23754;SDS011;12057;52.042;6.830;2023-02-28T15:44:48;9.82;;;4.20;;
23754;SDS011;12057;52.042;6.830;2023-02-28T15:49:50;9.50;;;4.60;;
23754;SDS011;12057;52.042;6.830;2023-02-28T15:54:53;10.48;;;3.70;;
23754;SDS011;12057;52.042;6.830;2023-02-28T15:59:58;5.50;;;2.70;;
23754;SDS011;12057;52.042;6.830;2023-02-28T16:10:11;5.75;;;2.85;;
23754;SDS011;12057;52.042;6.830;2023-02-28T16:20:21;8.07;;;3.03;;
23754;SDS011;12057;52.042;6.830;2023-02-28T16:25:29;5.45;;;2.72;;
23754;SDS011;12057;52.042;6.830;2023-02-28T16:30:36;6.80;;;4.07;;
23754;SDS011;12057;52.042;6.830;2023-02-28T16:35:36;4.67;;;3.03;;
23754;SDS011;12057;52.042;6.830;2023-02-28T16:40:37;6.53;;;3.20;;
23754;SDS011;12057;52.042;6.830;2023-02-28T16:45:38;10.20;;;4.78;;
23754;SDS011;12057;52.042;6.830;2023-02-28T16:50:40;5.95;;;3.60;;
23754;SDS011;12057;52.042;6.830;2023-02-28T17:00:42;5.03;;;3.13;;
23754;SDS011;12057;52.042;6.830;2023-02-28T17:10:45;9.20;;;4.20;;
23754;SDS011;12057;52.042;6.830;2023-02-28T17:15:47;18.45;;;8.80;;
23754;SDS011;12057;52.042;6.830;2023-02-28T17:20:48;112.40;;;45.60;;
23754;SDS011;12057;52.042;6.830;2023-02-28T17:25:49;40.40;;;16.85;;
23754;SDS011;12057;52.042;6.830;2023-02-28T17:30:53;24.17;;;10.75;;
23754;SDS011;12057;52.042;6.830;2023-02-28T17:35:55;38.13;;;9.98;;
23754;SDS011;12057;52.042;6.830;2023-02-28T17:40:57;24.25;;;7.28;;
23754;SDS011;12057;52.042;6.830;2023-02-28T17:45:58;25.30;;;7.32;;
23754;SDS011;12057;52.042;6.830;2023-02-28T17:50:59;25.40;;;7.38;;
23754;SDS011;12057;52.042;6.830;2023-02-28T17:56:00;15.10;;;6.97;;
23754;SDS011;12057;52.042;6.830;2023-02-28T18:01:01;15.88;;;5.93;;
23754;SDS011;12057;52.042;6.830;2023-02-28T18:06:02;7.68;;;4.07;;
23754;SDS011;12057;52.042;6.830;2023-02-28T18:11:03;29.23;;;10.18;;
23754;SDS011;12057;52.042;6.830;2023-02-28T18:16:04;62.83;;;18.80;;
23754;SDS011;12057;52.042;6.830;2023-02-28T18:21:06;22.92;;;8.00;;
23754;SDS011;12057;52.042;6.830;2023-02-28T18:26:08;14.32;;;4.95;;
23754;SDS011;12057;52.042;6.830;2023-02-28T18:31:14;10.35;;;5.47;;
23754;SDS011;12057;52.042;6.830;2023-02-28T18:36:17;16.88;;;5.82;;
23754;SDS011;12057;52.042;6.830;2023-02-28T18:41:20;16.70;;;5.13;;
23754;SDS011;12057;52.042;6.830;2023-02-28T18:46:21;10.15;;;3.70;;
23754;SDS011;12057;52.042;6.830;2023-02-28T18:51:23;12.52;;;4.32;;
23754;SDS011;12057;52.042;6.830;2023-02-28T18:56:25;9.93;;;4.97;;
23754;SDS011;12057;52.042;6.830;2023-02-28T19:01:27;26.98;;;7.20;;
23754;SDS011;12057;52.042;6.830;2023-02-28T19:06:31;9.05;;;4.38;;
23754;SDS011;12057;52.042;6.830;2023-02-28T19:11:32;9.40;;;4.97;;
23754;SDS011;12057;52.042;6.830;2023-02-28T19:16:33;16.27;;;7.35;;
23754;SDS011;12057;52.042;6.830;2023-02-28T19:21:36;14.60;;;6.03;;
23754;SDS011;12057;52.042;6.830;2023-02-28T19:26:40;21.67;;;8.57;;
23754;SDS011;12057;52.042;6.830;2023-02-28T19:31:41;24.48;;;9.48;;
23754;SDS011;12057;52.042;6.830;2023-02-28T19:36:41;20.98;;;9.63;;
23754;SDS011;12057;52.042;6.830;2023-02-28T19:41:42;17.20;;;9.13;;
23754;SDS011;12057;52.042;6.830;2023-02-28T19:46:43;61.55;;;19.67;;
23754;SDS011;12057;52.042;6.830;2023-02-28T19:51:44;29.75;;;13.90;;
23754;SDS011;12057;52.042;6.830;2023-02-28T20:01:46;27.43;;;12.00;;
23754;SDS011;12057;52.042;6.830;2023-02-28T20:06:47;27.80;;;11.68;;
23754;SDS011;12057;52.042;6.830;2023-02-28T20:11:48;21.27;;;9.68;;
23754;SDS011;12057;52.042;6.830;2023-02-28T20:16:49;23.20;;;10.13;;
23754;SDS011;12057;52.042;6.830;2023-02-28T20:21:50;21.02;;;7.70;;
23754;SDS011;12057;52.042;6.830;2023-02-28T20:26:51;13.93;;;6.65;;
23754;SDS011;12057;52.042;6.830;2023-02-28T20:31:52;21.67;;;8.10;;
23754;SDS011;12057;52.042;6.830;2023-02-28T20:36:53;15.15;;;7.20;;
23754;SDS011;12057;52.042;6.830;2023-02-28T20:41:55;15.35;;;6.45;;
23754;SDS011;12057;52.042;6.830;2023-02-28T20:46:56;14.68;;;5.68;;
23754;SDS011;12057;52.042;6.830;2023-02-28T20:51:57;11.23;;;5.78;;
23754;SDS011;12057;52.042;6.830;2023-02-28T20:56:57;13.07;;;6.07;;
23754;SDS011;12057;52.042;6.830;2023-02-28T21:01:58;13.23;;;5.25;;
23754;SDS011;12057;52.042;6.830;2023-02-28T21:06:59;15.30;;;5.45;;
23754;SDS011;12057;52.042;6.830;2023-02-28T21:12:00;10.48;;;5.50;;
23754;SDS011;12057;52.042;6.830;2023-02-28T21:17:00;25.08;;;9.30;;
23754;SDS011;12057;52.042;6.830;2023-02-28T21:22:01;17.67;;;8.55;;
23754;SDS011;12057;52.042;6.830;2023-02-28T21:27:02;24.48;;;8.68;;
23754;SDS011;12057;52.042;6.830;2023-02-28T21:32:03;20.83;;;7.75;;
23754;SDS011;12057;52.042;6.830;2023-02-28T21:37:05;14.27;;;6.78;;
23754;SDS011;12057;52.042;6.830;2023-02-28T21:42:06;14.07;;;6.63;;
23754;SDS011;12057;52.042;6.830;2023-02-28T21:47:07;14.90;;;6.30;;
23754;SDS011;12057;52.042;6.830;2023-02-28T21:52:10;27.13;;;10.38;;
23754;SDS011;12057;52.042;6.830;2023-02-28T21:57:11;24.73;;;11.43;;
23754;SDS011;12057;52.042;6.830;2023-02-28T22:02:13;33.15;;;10.18;;
23754;SDS011;12057;52.042;6.830;2023-02-28T22:07:13;19.35;;;8.82;;
23754;SDS011;12057;52.042;6.830;2023-02-28T22:12:17;28.92;;;9.60;;
23754;SDS011;12057;52.042;6.830;2023-02-28T22:17:17;23.58;;;8.93;;
23754;SDS011;12057;52.042;6.830;2023-02-28T22:27:20;25.70;;;9.20;;
23754;SDS011;12057;52.042;6.830;2023-02-28T22:32:20;28.20;;;10.13;;
23754;SDS011;12057;52.042;6.830;2023-02-28T22:37:21;23.60;;;9.75;;
23754;SDS011;12057;52.042;6.830;2023-02-28T22:42:22;31.20;;;10.57;;
23754;SDS011;12057;52.042;6.830;2023-02-28T22:52:25;25.17;;;7.85;;
23754;SDS011;12057;52.042;6.830;2023-02-28T22:57:27;13.85;;;5.97;;
23754;SDS011;12057;52.042;6.830;2023-02-28T23:02:27;21.77;;;6.88;;
23754;SDS011;12057;52.042;6.830;2023-02-28T23:12:29;14.80;;;6.27;;
23754;SDS011;12057;52.042;6.830;2023-02-28T23:22:31;15.60;;;6.85;;
23754;SDS011;12057;52.042;6.830;2023-02-28T23:32:32;18.13;;;7.37;;
23754;SDS011;12057;52.042;6.830;2023-02-28T23:42:35;15.48;;;6.72;;
23754;SDS011;12057;52.042;6.830;2023-02-28T23:47:36;15.13;;;6.63;;
23754;SDS011;12057;52.042;6.830;2023-02-28T23:57:37;18.40;;;7.17;;
